Time,TemperatureF,DewpointF,PressureIn,WindDirection,WindDirectionDegrees,WindSpeedMPH,WindSpeedGustMPH,Humidity,HourlyPrecipIn,Conditions,Clouds,dailyrainin,SoftwareType,DateUTC
2013-01-22 00:01:00,33.4,32.9,29.63,East,90,2.7,-999.0,98,-99.99,,,0.00,Acu-Link.com,2013-01-22 08:01:00,
2013-01-22 00:16:00,32.9,32.4,29.62,ESE,112,3.7,-999.0,98,-99.99,,,0.00,Acu-Link.com,2013-01-22 08:16:00,
2013-01-22 00:31:00,32.4,32.2,29.63,SW,225,0.0,-999.0,99,-99.99,,,0.00,Acu-Link.com,2013-01-22 08:31:00,
2013-01-22 00:46:00,32.9,32.7,29.64,SSE,157,1.7,-999.0,99,-99.99,,,0.00,Acu-Link.com,2013-01-22 08:46:00,
2013-01-22 01:14:00,32.9,32.7,29.63,ESE,112,1.7,-999.0,99,-99.99,,,0.00,Acu-Link.com,2013-01-22 09:14:00,
2013-01-22 01:29:00,32.2,32.0,29.63,ENE,67,0.0,-999.0,99,-99.99,,,0.00,Acu-Link.com,2013-01-22 09:29:00,
2013-01-22 01:45:00,32.5,32.3,29.63,WSW,247,0.0,-999.0,99,-99.99,,,0.00,Acu-Link.com,2013-01-22 09:45:00,
2013-01-22 02:00:00,32.5,32.3,29.63,East,90,2.7,-999.0,99,-99.99,,,0.00,Acu-Link.com,2013-01-22 10:00:00,
2013-01-22 02:15:00,32.5,32.3,29.62,ENE,67,3.2,-999.0,99,-99.99,,,0.00,Acu-Link.com,2013-01-22 10:15:00,
2013-01-22 02:30:00,32.5,32.3,29.63,ENE,67,3.7,-999.0,99,-99.99,,,0.00,Acu-Link.com,2013-01-22 10:30:00,
2013-01-22 02:45:00,32.5,32.3,29.64,South,180,1.7,-999.0,99,-99.99,,,0.00,Acu-Link.com,2013-01-22 10:45:00,
2013-01-22 03:00:00,32.7,32.5,29.63,ENE,67,1.7,-999.0,99,-99.99,,,0.00,Acu-Link.com,2013-01-22 11:00:00,
2013-01-22 03:15:00,32.9,32.7,29.63,ESE,112,2.7,-999.0,99,-99.99,,,0.00,Acu-Link.com,2013-01-22 11:15:00,
2013-01-22 03:31:00,32.9,32.7,29.63,NE,45,1.7,-999.0,99,-99.99,,,0.00,Acu-Link.com,2013-01-22 11:31:00,
2013-01-22 03:46:00,32.9,32.7,29.64,ESE,112,3.7,-999.0,99,-99.99,,,0.00,Acu-Link.com,2013-01-22 11:46:00,
2013-01-22 04:01:00,33.1,32.8,29.64,East,90,4.7,-999.0,99,-99.99,,,0.00,Acu-Link.com,2013-01-22 12:01:00,
2013-01-22 04:16:00,33.1,32.8,29.64,ENE,67,3.7,-999.0,99,-99.99,,,0.00,Acu-Link.com,2013-01-22 12:16:00,
2013-01-22 04:31:00,32.9,32.7,29.62,NE,45,2.2,-999.0,99,-99.99,,,0.00,Acu-Link.com,2013-01-22 12:31:00,
2013-01-22 04:46:00,32.7,32.5,29.61,ENE,67,3.7,-999.0,99,-99.99,,,0.00,Acu-Link.com,2013-01-22 12:46:00,
2013-01-22 05:01:00,32.7,32.5,29.62,NNE,22,1.7,-999.0,99,-99.99,,,0.00,Acu-Link.com,2013-01-22 13:01:00,
2013-01-22 05:17:00,33.1,32.8,29.62,ESE,112,0.0,-999.0,99,-99.99,,,0.00,Acu-Link.com,2013-01-22 13:17:00,
2013-01-22 05:32:00,33.1,32.8,29.61,SE,135,1.1,-999.0,99,-99.99,,,0.00,Acu-Link.com,2013-01-22 13:32:00,
2013-01-22 05:47:00,33.3,33.0,29.61,SW,225,0.0,-999.0,99,-99.99,,,0.00,Acu-Link.com,2013-01-22 13:47:00,
2013-01-22 06:03:00,33.3,33.0,29.60,South,180,0.0,-999.0,99,-99.99,,,0.00,Acu-Link.com,2013-01-22 14:03:00,
2013-01-22 06:18:00,33.1,32.8,29.60,SSE,157,0.0,-999.0,99,-99.99,,,0.00,Acu-Link.com,2013-01-22 14:18:00,
2013-01-22 06:33:00,32.5,32.3,29.60,NNE,22,3.7,-999.0,99,-99.99,,,0.00,Acu-Link.com,2013-01-22 14:33:00,
2013-01-22 06:48:00,32.5,32.3,29.61,East,90,1.7,-999.0,99,-99.99,,,0.00,Acu-Link.com,2013-01-22 14:48:00,
2013-01-22 07:03:00,32.4,32.2,29.59,South,180,0.0,-999.0,99,-99.99,,,0.00,Acu-Link.com,2013-01-22 15:03:00,
2013-01-22 07:19:00,32.7,32.5,29.59,SSW,202,0.0,-999.0,99,-99.99,,,0.00,Acu-Link.com,2013-01-22 15:19:00,
2013-01-22 07:34:00,33.1,32.8,29.59,ESE,112,1.7,-999.0,99,-99.99,,,0.00,Acu-Link.com,2013-01-22 15:34:00,
2013-01-22 07:49:00,33.3,33.0,29.60,ESE,112,2.7,-999.0,99,-99.99,,,0.00,Acu-Link.com,2013-01-22 15:49:00,
2013-01-22 08:04:00,32.9,32.7,29.60,ESE,112,2.7,-999.0,99,-99.99,,,0.00,Acu-Link.com,2013-01-22 16:04:00,
2013-01-22 08:19:00,32.7,32.5,29.59,NE,45,2.2,-999.0,99,-99.99,,,0.00,Acu-Link.com,2013-01-22 16:19:00,
2013-01-22 08:35:00,32.9,32.7,29.59,East,90,0.0,-999.0,99,-99.99,,,0.00,Acu-Link.com,2013-01-22 16:35:00,
2013-01-22 08:50:00,32.7,32.5,29.59,SSE,157,1.7,-999.0,99,-99.99,,,0.00,Acu-Link.com,2013-01-22 16:50:00,
2013-01-22 09:05:00,32.7,32.5,29.60,NNE,22,2.2,-999.0,99,-99.99,,,0.00,Acu-Link.com,2013-01-22 17:05:00,
2013-01-22 09:20:00,33.1,32.8,29.60,NNW,337,0.0,-999.0,99,-99.99,,,0.00,Acu-Link.com,2013-01-22 17:20:00,
2013-01-22 09:35:00,33.4,33.1,29.60,ESE,112,2.2,-999.0,99,-99.99,,,0.00,Acu-Link.com,2013-01-22 17:35:00,
2013-01-22 09:51:00,33.8,33.5,29.60,NW,315,0.0,-999.0,99,-99.99,,,0.00,Acu-Link.com,2013-01-22 17:51:00,
2013-01-22 10:21:00,35.1,34.1,29.60,East,90,2.7,-999.0,96,-99.99,,,0.00,Acu-Link.com,2013-01-22 18:21:00,
2013-01-22 10:36:00,36.0,34.2,29.60,ESE,112,0.0,-999.0,93,-99.99,,,0.00,Acu-Link.com,2013-01-22 18:36:00,
2013-01-22 11:06:00,35.4,34.4,29.60,WNW,292,2.7,-999.0,96,-99.99,,,0.00,Acu-Link.com,2013-01-22 19:06:00,
2013-01-22 11:21:00,37.2,34.5,29.59,North,0,2.2,-999.0,90,-99.99,,,0.00,Acu-Link.com,2013-01-22 19:21:00,
2013-01-22 11:36:00,37.6,34.9,29.60,North,0,1.1,-999.0,90,-99.99,,,0.00,Acu-Link.com,2013-01-22 19:36:00,
2013-01-22 11:52:00,37.9,35.2,29.59,WNW,292,1.7,-999.0,90,-99.99,,,0.00,Acu-Link.com,2013-01-22 19:52:00,
2013-01-22 12:07:00,39.2,35.7,29.58,ESE,112,3.2,-999.0,87,-99.99,,,0.00,Acu-Link.com,2013-01-22 20:07:00,
2013-01-22 12:22:00,39.2,35.4,29.58,East,90,3.2,-999.0,86,-99.99,,,0.00,Acu-Link.com,2013-01-22 20:22:00,
2013-01-22 12:37:00,38.1,35.2,29.56,East,90,3.2,-999.0,89,-99.99,,,0.00,Acu-Link.com,2013-01-22 20:37:00,
2013-01-22 12:52:00,38.1,35.4,29.57,East,90,1.7,-999.0,90,-99.99,,,0.00,Acu-Link.com,2013-01-22 20:52:00,
2013-01-22 13:07:00,38.8,35.6,29.57,East,90,5.3,-999.0,88,-99.99,,,0.00,Acu-Link.com,2013-01-22 21:07:00,
2013-01-22 13:22:00,37.9,35.2,29.55,ENE,67,5.3,-999.0,90,-99.99,,,0.00,Acu-Link.com,2013-01-22 21:22:00,
2013-01-22 13:37:00,38.7,35.7,29.54,NE,45,3.7,-999.0,89,-99.99,,,0.00,Acu-Link.com,2013-01-22 21:37:00,
2013-01-22 13:52:00,38.1,35.4,29.54,ESE,112,2.7,-999.0,90,-99.99,,,0.00,Acu-Link.com,2013-01-22 21:52:00,
2013-01-22 14:08:00,39.6,36.1,29.54,NNE,22,2.2,-999.0,87,-99.99,,,0.00,Acu-Link.com,2013-01-22 22:08:00,
2013-01-22 14:23:00,39.4,35.9,29.54,ESE,112,2.2,-999.0,87,-99.99,,,0.00,Acu-Link.com,2013-01-22 22:23:00,
2013-01-22 14:38:00,40.3,36.5,29.53,East,90,4.2,-999.0,86,-99.99,,,0.00,Acu-Link.com,2013-01-22 22:38:00,
2013-01-22 14:53:00,40.3,36.5,29.53,ESE,112,3.2,-999.0,86,-99.99,,,0.00,Acu-Link.com,2013-01-22 22:53:00,
2013-01-22 15:08:00,40.3,36.7,29.51,ESE,112,2.2,-999.0,87,-99.99,,,0.00,Acu-Link.com,2013-01-22 23:08:00,
2013-01-22 15:23:00,40.5,36.6,29.52,East,90,0.0,-999.0,86,-99.99,,,0.00,Acu-Link.com,2013-01-22 23:23:00,
2013-01-22 15:38:00,40.3,36.7,29.52,ENE,67,3.7,-999.0,87,-99.99,,,0.00,Acu-Link.com,2013-01-22 23:38:00,
2013-01-22 15:53:00,40.6,36.7,29.51,East,90,2.2,-999.0,86,-99.99,,,0.00,Acu-Link.com,2013-01-22 23:53:00,
2013-01-22 16:08:00,40.5,36.9,29.51,SSW,202,0.0,-999.0,87,-99.99,,,0.00,Acu-Link.com,2013-01-23 00:08:00,
2013-01-22 16:24:00,39.9,36.4,29.51,South,180,1.7,-999.0,87,-99.99,,,0.00,Acu-Link.com,2013-01-23 00:24:00,
2013-01-22 16:39:00,39.6,36.3,29.51,ESE,112,2.7,-999.0,88,-99.99,,,0.00,Acu-Link.com,2013-01-23 00:39:00,
2013-01-22 16:54:00,39.0,36.3,29.51,ESE,112,0.0,-999.0,90,-99.99,,,0.00,Acu-Link.com,2013-01-23 00:54:00,
2013-01-22 17:09:00,38.8,36.1,29.50,East,90,2.7,-999.0,90,-99.99,,,0.00,Acu-Link.com,2013-01-23 01:09:00,
2013-01-22 17:24:00,38.8,36.4,29.49,SW,225,0.0,-999.0,91,-99.99,,,0.00,Acu-Link.com,2013-01-23 01:24:00,
2013-01-22 17:39:00,39.2,37.1,29.49,WNW,292,1.7,-999.0,92,-99.99,,,0.00,Acu-Link.com,2013-01-23 01:39:00,
2013-01-22 17:54:00,39.0,36.9,29.50,NNW,337,0.0,-999.0,92,-99.99,,,0.00,Acu-Link.com,2013-01-23 01:54:00,
2013-01-22 18:09:00,39.2,37.1,29.49,SW,225,0.0,-999.0,92,-99.99,,,0.00,Acu-Link.com,2013-01-23 02:09:00,
2013-01-22 18:24:00,39.0,37.2,29.49,NE,45,0.0,-999.0,93,-99.99,,,0.00,Acu-Link.com,2013-01-23 02:24:00,
2013-01-22 18:40:00,38.5,36.9,29.49,East,90,0.0,-999.0,94,-99.99,,,0.00,Acu-Link.com,2013-01-23 02:40:00,
2013-01-22 18:55:00,38.7,36.9,29.47,East,90,2.2,-999.0,93,-99.99,,,0.00,Acu-Link.com,2013-01-23 02:55:00,
2013-01-22 19:10:00,38.5,36.9,29.47,South,180,0.0,-999.0,94,-99.99,,,0.00,Acu-Link.com,2013-01-23 03:10:00,
2013-01-22 19:25:00,39.0,37.2,29.48,West,270,0.0,-999.0,93,-99.99,,,0.00,Acu-Link.com,2013-01-23 03:25:00,
2013-01-22 19:40:00,38.8,36.7,29.46,NNW,337,2.2,-999.0,92,-99.99,,,0.00,Acu-Link.com,2013-01-23 03:40:00,
2013-01-22 19:55:00,38.8,37.0,29.47,ESE,112,2.2,-999.0,93,-99.99,,,0.00,Acu-Link.com,2013-01-23 03:55:00,
2013-01-22 20:10:00,38.7,36.9,29.47,ESE,112,1.1,-999.0,93,-99.99,,,0.00,Acu-Link.com,2013-01-23 04:10:00,
2013-01-22 20:25:00,38.7,36.9,29.47,ENE,67,2.7,-999.0,93,-99.99,,,0.00,Acu-Link.com,2013-01-23 04:25:00,
2013-01-22 20:40:00,38.5,36.9,29.46,ESE,112,1.1,-999.0,94,-99.99,,,0.00,Acu-Link.com,2013-01-23 04:40:00,
2013-01-22 20:56:00,38.5,37.2,29.47,ENE,67,0.0,-999.0,95,-99.99,,,0.00,Acu-Link.com,2013-01-23 04:56:00,
2013-01-22 21:11:00,38.7,37.4,29.46,NE,45,0.0,-999.0,95,-99.99,,,0.00,Acu-Link.com,2013-01-23 05:11:00,
2013-01-22 21:26:00,38.8,37.5,29.47,NE,45,1.7,-999.0,95,-99.99,,,0.00,Acu-Link.com,2013-01-23 05:26:00,
2013-01-22 21:41:00,39.0,37.4,29.46,East,90,2.7,-999.0,94,-99.99,,,0.00,Acu-Link.com,2013-01-23 05:41:00,
2013-01-22 21:56:00,38.8,37.2,29.46,ESE,112,2.7,-999.0,94,-99.99,,,0.00,Acu-Link.com,2013-01-23 05:56:00,
2013-01-22 22:11:00,39.4,37.8,29.46,SSW,202,0.0,-999.0,94,-99.99,,,0.00,Acu-Link.com,2013-01-23 06:11:00,
2013-01-22 22:26:00,39.4,37.5,29.45,ENE,67,0.0,-999.0,93,-99.99,,,0.00,Acu-Link.com,2013-01-23 06:26:00,
2013-01-22 22:41:00,39.7,38.1,29.46,SW,225,0.0,-999.0,94,-99.99,,,0.00,Acu-Link.com,2013-01-23 06:41:00,
2013-01-22 23:11:00,39.7,38.1,29.47,ESE,112,0.0,-999.0,94,-99.99,,,0.00,Acu-Link.com,2013-01-23 07:11:00,
2013-01-22 23:27:00,39.9,38.3,29.48,ESE,112,0.0,-999.0,94,-99.99,,,0.00,Acu-Link.com,2013-01-23 07:27:00,
2013-01-22 23:42:00,40.1,38.2,29.47,NE,45,2.2,-999.0,93,-99.99,,,0.00,Acu-Link.com,2013-01-23 07:42:00,
2013-01-22 23:57:00,40.1,38.0,29.48,South,180,2.7,-999.0,92,-99.99,,,0.00,Acu-Link.com,2013-01-23 07:57:00,